Time;durP1;ratioP1;P1;durP2;ratioP2;P2;SDS_P1;SDS_P2;PMS_P1;PMS_P2;Temp;Humidity;BMP_temperature;BMP_pressure;BME280_temperature;BME280_humidity;BME280_pressure;Samples;Min_cycle;Max_cycle;Signal;HPM_P1;HPM_P2
2021/07/22 00:00:53;;;;;;;6.97;5.65;;;;;;;18.69;65.38;101329.84;4884108;28;98304;-76
2021/07/22 00:03:19;;;;;;;8.95;5.88;;;;;;;18.69;65.37;101329.84;4902365;28;125440;-71
2021/07/22 00:05:45;;;;;;;8.23;5.43;;;;;;;18.69;65.49;101329.06;4884292;28;118255;-77
2021/07/22 00:08:11;;;;;;;7.95;5.70;;;;;;;18.68;65.39;101322.78;4902826;28;127492;-71
2021/07/22 00:10:40;;;;;;;7.60;5.72;;;;;;;18.63;65.28;101326.41;4884758;28;97941;-76
2021/07/22 00:13:07;;;;;;;7.72;5.80;;;;;;;18.60;65.38;101329.75;4901838;28;126796;-71
2021/07/22 00:15:33;;;;;;;7.00;5.57;;;;;;;18.58;65.58;101329.22;4869643;28;98009;-71
2021/07/22 00:17:59;;;;;;;7.43;5.70;;;;;;;18.58;65.59;101328.41;4902697;28;108750;-71
2021/07/22 00:20:25;;;;;;;9.05;5.65;;;;;;;18.58;65.44;101328.41;4900386;28;100307;-71
2021/07/22 00:22:51;;;;;;;7.85;5.43;;;;;;;18.53;65.56;101326.59;4900833;28;127413;-76
2021/07/22 00:25:18;;;;;;;9.68;6.22;;;;;;;18.52;65.49;101327.72;4903450;28;104533;-76
2021/07/22 00:27:44;;;;;;;6.78;6.07;;;;;;;18.49;65.56;101328.31;4901495;28;127507;-71
2021/07/22 00:30:10;;;;;;;8.70;6.20;;;;;;;18.47;65.76;101325.06;4883925;28;127009;-77
2021/07/22 00:32:36;;;;;;;7.97;6.00;;;;;;;18.44;65.82;101333.84;4902097;28;98193;-71
2021/07/22 00:35:03;;;;;;;7.80;5.60;;;;;;;18.41;65.87;101326.25;4884034;28;116155;-71
2021/07/22 00:37:29;;;;;;;8.90;6.05;;;;;;;18.40;66.00;101330.91;4900917;28;98025;-71
2021/07/22 00:39:55;;;;;;;9.20;6.57;;;;;;;18.38;65.89;101324.94;4901362;28;126621;-71
2021/07/22 00:42:22;;;;;;;8.20;5.97;;;;;;;18.35;65.86;101327.44;4902807;28;98358;-71
2021/07/22 00:44:48;;;;;;;13.52;5.88;;;;;;;18.35;65.85;101330.16;4885086;28;105992;-71
2021/07/22 00:47:14;;;;;;;10.45;6.18;;;;;;;18.29;65.85;101328.66;4884587;28;98438;-77
2021/07/22 00:49:40;;;;;;;10.45;6.10;;;;;;;18.27;66.14;101325.41;4899283;28;105285;-77
2021/07/22 00:52:06;;;;;;;10.02;5.93;;;;;;;18.27;65.86;101331.66;4902080;28;97955;-71
2021/07/22 00:54:32;;;;;;;7.88;5.80;;;;;;;18.27;66.35;101322.66;4899638;28;117075;-71
2021/07/22 00:56:58;;;;;;;9.95;5.45;;;;;;;18.26;66.15;101326.50;4899497;28;127817;-71
2021/07/22 00:59:24;;;;;;;8.63;5.97;;;;;;;18.26;66.33;101329.25;4882860;28;126637;-76
2021/07/22 01:01:50;;;;;;;8.38;5.93;;;;;;;18.25;66.41;101325.72;4866988;28;125041;-75
2021/07/22 01:04:18;;;;;;;7.47;5.43;;;;;;;18.25;66.59;101331.16;4900134;28;116613;-72
2021/07/22 01:06:44;;;;;;;6.95;5.75;;;;;;;18.25;66.69;101324.91;4900218;28;98376;-76
2021/07/22 01:09:10;;;;;;;9.98;5.82;;;;;;;18.25;66.56;101325.72;4899859;28;127037;-77
2021/07/22 01:11:36;;;;;;;9.00;6.30;;;;;;;18.24;66.57;101326.03;4883320;28;127299;-76
2021/07/22 01:14:02;;;;;;;8.45;6.10;;;;;;;18.24;66.49;101326.03;4884273;28;117995;-76
2021/07/22 01:16:28;;;;;;;8.32;5.78;;;;;;;18.22;66.56;101322.75;4887071;28;98954;-76
2021/07/22 01:18:54;;;;;;;7.78;5.60;;;;;;;18.22;66.53;101322.75;4886348;28;127280;-71
2021/07/22 01:21:22;;;;;;;9.63;5.78;;;;;;;18.21;66.63;101324.69;4902776;28;127853;-72
2021/07/22 01:23:49;;;;;;;9.63;6.00;;;;;;;18.21;66.80;101324.69;4887973;28;97990;-75
2021/07/22 01:26:15;;;;;;;8.35;5.57;;;;;;;18.20;66.59;101327.72;4902402;28;127876;-71
2021/07/22 01:28:41;;;;;;;7.45;5.82;;;;;;;18.19;66.87;101326.88;4902976;28;121177;-76
2021/07/22 01:31:07;;;;;;;8.27;5.75;;;;;;;18.18;66.67;101321.75;4904298;28;126728;-71
2021/07/22 01:33:33;;;;;;;6.63;5.65;;;;;;;18.19;67.01;101324.16;4902956;28;115012;-76
2021/07/22 01:35:59;;;;;;;9.27;6.00;;;;;;;18.19;66.86;101320.63;4904242;28;126912;-71
2021/07/22 01:38:25;;;;;;;9.20;5.68;;;;;;;18.19;66.78;101318.69;4885982;28;126373;-71
2021/07/22 01:40:51;;;;;;;8.50;6.00;;;;;;;18.18;67.09;101322.53;4902854;28;127034;-75
2021/07/22 01:43:17;;;;;;;8.65;5.65;;;;;;;18.19;66.84;101315.16;4905548;28;107164;-71
2021/07/22 01:45:43;;;;;;;8.52;6.07;;;;;;;18.18;67.14;101308.91;4904477;28;115647;-72
2021/07/22 01:48:09;;;;;;;8.10;5.82;;;;;;;18.18;67.21;101311.63;4904129;28;98254;-75
2021/07/22 01:50:35;;;;;;;7.45;5.38;;;;;;;18.19;67.03;101309.72;4903608;28;126073;-71
2021/07/22 01:53:04;;;;;;;8.65;6.25;;;;;;;18.18;66.82;101299.91;4903171;28;97894;-75
2021/07/22 01:55:30;;;;;;;7.97;5.78;;;;;;;18.15;66.83;101304.03;4905052;28;97707;-75
2021/07/22 01:57:58;;;;;;;8.68;5.85;;;;;;;18.11;66.88;101297.56;4905590;28;97651;-71
2021/07/22 02:00:24;;;;;;;7.93;5.95;;;;;;;18.08;67.15;101309.91;4904726;28;99794;-76
2021/07/22 02:02:51;;;;;;;8.80;6.40;;;;;;;18.06;67.14;101300.38;4903423;28;97855;-71
2021/07/22 02:05:17;;;;;;;11.80;6.40;;;;;;;18.03;67.39;101304.50;4902738;28;99064;-75
2021/07/22 02:07:43;;;;;;;11.35;6.03;;;;;;;18.02;67.38;101305.63;4905224;28;97985;-75
2021/07/22 02:10:09;;;;;;;9.63;6.57;;;;;;;17.98;67.38;101298.31;4903805;28;127574;-75
2021/07/22 02:12:35;;;;;;;10.88;6.25;;;;;;;17.97;67.33;101304.91;4902766;28;106306;-71
2021/07/22 02:15:01;;;;;;;10.10;5.80;;;;;;;17.94;67.56;101306.28;4901379;28;124821;-71
2021/07/22 02:17:27;;;;;;;8.48;5.88;;;;;;;17.95;67.61;101312.56;4902470;28;126216;-76
2021/07/22 02:19:53;;;;;;;7.93;6.38;;;;;;;17.95;67.73;101309.81;4903948;28;124647;-75
2021/07/22 02:22:19;;;;;;;8.88;6.15;;;;;;;17.94;67.74;101308.22;4904016;28;110156;-71
2021/07/22 02:24:45;;;;;;;7.85;6.10;;;;;;;17.93;67.78;101312.06;4885776;28;98647;-75
2021/07/22 02:27:11;;;;;;;8.07;5.97;;;;;;;17.93;67.79;101314.78;4904946;28;97900;-71
2021/07/22 02:29:37;;;;;;;8.10;6.13;;;;;;;17.90;67.80;101310.72;4885987;28;116290;-75
2021/07/22 02:32:04;;;;;;;10.57;6.15;;;;;;;17.90;67.89;101311.53;4902387;28;97926;-75
2021/07/22 02:34:31;;;;;;;9.80;6.32;;;;;;;17.88;67.88;101310.19;4903875;28;112596;-75
2021/07/22 02:36:57;;;;;;;8.90;6.03;;;;;;;17.86;68.00;101315.94;4904080;28;111596;-71
2021/07/22 02:39:24;;;;;;;8.65;5.75;;;;;;;17.82;68.03;101316.84;4886431;28;117089;-75
2021/07/22 02:41:50;;;;;;;11.52;6.28;;;;;;;17.79;68.09;101312.78;4886637;28;97865;-75
2021/07/22 02:44:16;;;;;;;7.63;6.05;;;;;;;17.79;68.32;101312.78;4903378;28;125380;-75
2021/07/22 02:46:42;;;;;;;8.40;5.88;;;;;;;17.80;68.29;101310.84;4903138;28;127347;-71
2021/07/22 02:49:08;;;;;;;14.85;6.22;;;;;;;17.80;68.32;101314.41;4869621;28;100058;-75
2021/07/22 02:51:34;;;;;;;8.95;6.18;;;;;;;17.79;68.57;101314.69;4903897;28;98018;-71
2021/07/22 02:54:00;;;;;;;7.75;6.22;;;;;;;17.81;68.67;101321.50;4902830;28;127909;-75
2021/07/22 02:56:26;;;;;;;8.43;6.47;;;;;;;17.81;67.99;101320.69;4869255;28;128173;-71
2021/07/22 02:59:12;;;;;;;8.55;6.25;;;;;;;17.77;67.89;101312.28;4883112;28;127269;-75
2021/07/22 03:01:40;;;;;;;9.82;6.50;;;;;;;17.79;68.12;101314.69;4883872;28;116702;-74
2021/07/22 03:04:06;;;;;;;8.88;6.22;;;;;;;17.79;68.43;101317.41;4881891;28;126977;-71
2021/07/22 03:06:32;;;;;;;9.02;6.47;;;;;;;17.76;68.41;101304.38;4885042;28;126962;-71
2021/07/22 03:08:58;;;;;;;9.82;6.28;;;;;;;17.77;68.43;101317.72;4903659;28;125977;-71
2021/07/22 03:11:24;;;;;;;7.68;6.53;;;;;;;17.77;68.23;101306.03;4903140;28;116757;-71
2021/07/22 03:13:50;;;;;;;9.80;6.22;;;;;;;17.76;68.85;101316.09;4903118;28;125984;-71
2021/07/22 03:16:16;;;;;;;10.38;6.47;;;;;;;17.77;68.85;101320.47;4885594;28;126221;-74
2021/07/22 03:18:42;;;;;;;9.80;6.57;;;;;;;17.79;68.83;101320.16;4903528;28;99500;-75
2021/07/22 03:21:08;;;;;;;9.65;6.13;;;;;;;17.77;68.62;101312.28;4904072;28;97775;-74
2021/07/22 03:23:34;;;;;;;11.43;6.00;;;;;;;17.79;68.50;101315.50;4885898;28;98410;-75
2021/07/22 03:26:00;;;;;;;7.82;6.13;;;;;;;17.77;68.50;101312.28;4885272;28;126935;-71
2021/07/22 03:28:26;;;;;;;8.05;6.15;;;;;;;17.78;68.73;101316.63;4903503;28;98013;-75
2021/07/22 03:30:53;;;;;;;7.38;5.65;;;;;;;17.79;68.62;101318.22;4902860;28;118166;-75
2021/07/22 03:33:19;;;;;;;7.50;6.38;;;;;;;17.79;68.62;101318.22;4903984;28;97936;-75
2021/07/22 03:35:45;;;;;;;7.78;6.15;;;;;;;17.81;68.67;101316.03;4902535;28;107955;-72
2021/07/22 03:38:11;;;;;;;9.82;6.38;;;;;;;17.81;68.52;101318.75;4885395;28;98067;-75
2021/07/22 03:40:37;;;;;;;8.88;6.57;;;;;;;17.81;68.64;101326.13;4902772;28;116787;-75
2021/07/22 03:43:03;;;;;;;8.77;6.32;;;;;;;17.80;68.97;101313.59;4902200;28;97811;-75
2021/07/22 03:45:29;;;;;;;7.13;6.18;;;;;;;17.79;68.66;101320.16;4900700;28;126317;-75
2021/07/22 03:47:59;;;;;;;7.90;6.97;;;;;;;17.74;68.15;101315.56;4902787;28;114245;-71
2021/07/22 03:50:26;;;;;;;10.13;6.60;;;;;;;17.73;68.51;101316.66;4885707;28;97812;-71
2021/07/22 03:52:56;;;;;;;11.25;6.38;;;;;;;17.70;68.46;101308.25;4901966;28;98108;-75
2021/07/22 03:55:24;;;;;;;8.90;6.68;;;;;;;17.70;68.69;101309.06;4902890;28;98114;-71
2021/07/22 03:57:50;;;;;;;7.50;6.10;;;;;;;17.71;68.83;101321.59;4885974;28;100064;-75
2021/07/22 04:00:17;;;;;;;9.57;6.32;;;;;;;17.72;68.74;101319.66;4902662;28;117321;-71
2021/07/22 04:02:43;;;;;;;8.80;6.55;;;;;;;17.72;68.83;101309.56;4900637;28;99139;-74
2021/07/22 04:05:09;;;;;;;10.32;6.70;;;;;;;17.71;68.73;101305.22;4902176;28;122733;-71
2021/07/22 04:07:35;;;;;;;8.68;6.38;;;;;;;17.70;68.83;101309.06;4900532;28;111810;-71
2021/07/22 04:10:01;;;;;;;8.43;6.20;;;;;;;17.72;68.81;101308.75;4900393;28;116573;-75
2021/07/22 04:12:27;;;;;;;10.40;6.95;;;;;;;17.71;68.83;101309.88;4868702;28;127830;-75
2021/07/22 04:14:53;;;;;;;8.55;6.47;;;;;;;17.71;68.68;101307.97;4885095;28;98289;-72
2021/07/22 04:17:19;;;;;;;12.70;6.65;;;;;;;17.68;69.07;101305.81;4900453;28;107337;-71
2021/07/22 04:19:45;;;;;;;8.05;5.93;;;;;;;17.70;68.90;101313.72;4884379;28;117619;-71
2021/07/22 04:22:12;;;;;;;10.00;6.40;;;;;;;17.71;69.49;101318.88;4900449;28;116244;-75
2021/07/22 04:24:39;;;;;;;9.02;6.70;;;;;;;17.75;69.13;101311.75;4901364;28;98426;-72
2021/07/22 04:27:06;;;;;;;11.18;6.90;;;;;;;17.77;68.84;101314.19;4884027;28;126830;-75
2021/07/22 04:29:32;;;;;;;8.23;6.65;;;;;;;17.78;68.80;101319.34;4901752;28;97921;-76
2021/07/22 04:31:59;;;;;;;9.48;6.60;;;;;;;17.79;69.02;101323.69;4900612;28;126989;-71
2021/07/22 04:34:25;;;;;;;10.07;6.30;;;;;;;17.77;68.72;101317.72;4900520;28;127810;-71
2021/07/22 04:36:51;;;;;;;7.47;6.20;;;;;;;17.78;68.79;101326.72;4902385;28;114398;-76
2021/07/22 04:39:17;;;;;;;9.60;6.30;;;;;;;17.79;69.14;101322.88;4901783;28;101892;-76
2021/07/22 04:41:43;;;;;;;10.07;6.68;;;;;;;17.83;69.02;101329.34;4882811;28;125946;-75
2021/07/22 04:44:09;;;;;;;9.40;6.13;;;;;;;17.86;68.53;101329.59;4900823;28;98198;-72
2021/07/22 04:46:35;;;;;;;10.98;6.72;;;;;;;17.84;68.44;101323.63;4883712;28;127461;-75
2021/07/22 04:49:01;;;;;;;10.07;6.63;;;;;;;17.82;68.52;101322.28;4900271;28;116634;-75
2021/07/22 04:51:27;;;;;;;8.82;6.57;;;;;;;17.80;68.69;101322.59;4901611;28;126886;-71
2021/07/22 04:53:55;;;;;;;8.82;6.40;;;;;;;17.82;68.65;101322.28;4900061;28;115429;-75
2021/07/22 04:56:21;;;;;;;9.40;6.88;;;;;;;17.86;68.76;101323.31;4884581;28;98137;-76
2021/07/22 04:58:47;;;;;;;10.63;7.05;;;;;;;17.87;68.51;101322.22;4901423;28;117566;-71
2021/07/22 05:01:14;;;;;;;10.85;6.50;;;;;;;17.89;68.70;101328.19;4899201;28;126705;-75
2021/07/22 05:03:40;;;;;;;9.20;6.80;;;;;;;17.92;68.62;101335.78;4902293;28;98330;-72
2021/07/22 05:06:09;;;;;;;8.05;6.63;;;;;;;17.93;68.41;101329.22;4900775;28;124741;-75
2021/07/22 05:08:35;;;;;;;11.23;6.38;;;;;;;17.99;68.43;101329.94;4901133;28;97979;-75
2021/07/22 05:11:01;;;;;;;9.55;6.60;;;;;;;18.03;68.57;101325.50;4901800;28;98828;-72
2021/07/22 05:13:27;;;;;;;9.40;6.97;;;;;;;18.06;68.55;101327.66;4884397;28;97939;-75
2021/07/22 05:15:53;;;;;;;8.32;6.82;;;;;;;18.10;68.42;101328.69;4867204;28;125986;-75
2021/07/22 05:18:19;;;;;;;8.55;6.60;;;;;;;18.13;68.33;101322.63;4883697;28;115116;-71
2021/07/22 05:20:45;;;;;;;7.45;6.20;;;;;;;18.14;68.35;101316.88;4882672;28;126869;-75
2021/07/22 05:23:11;;;;;;;9.45;6.28;;;;;;;18.18;68.36;101322.53;4884138;28;110204;-71
2021/07/22 05:25:37;;;;;;;8.20;6.38;;;;;;;18.19;68.34;101323.34;4898778;28;123986;-76
2021/07/22 05:28:03;;;;;;;7.53;6.28;;;;;;;18.24;68.47;101324.09;4900097;28;97893;-72
2021/07/22 05:30:29;;;;;;;8.10;6.88;;;;;;;18.31;68.52;101318.22;4899785;28;98283;-72
2021/07/22 05:32:55;;;;;;;9.13;6.28;;;;;;;18.37;68.19;101322.50;4901253;28;108753;-75
2021/07/22 05:35:21;;;;;;;9.15;6.68;;;;;;;18.44;68.02;101324.88;4900863;28;124210;-72
2021/07/22 05:37:47;;;;;;;9.15;6.53;;;;;;;18.49;67.78;101327.50;4899944;28;117876;-76
2021/07/22 05:40:13;;;;;;;11.40;7.38;;;;;;;18.51;67.59;101328.00;4900238;28;98325;-76
2021/07/22 05:42:40;;;;;;;10.82;6.07;;;;;;;18.54;67.38;101325.47;4899391;28;116980;-72
2021/07/22 05:45:07;;;;;;;8.38;6.63;;;;;;;18.58;67.46;101331.16;4883816;28;97771;-72
2021/07/22 05:47:33;;;;;;;9.50;6.45;;;;;;;18.63;67.39;101320.16;4902294;28;107097;-72
2021/07/22 05:49:59;;;;;;;10.65;6.85;;;;;;;18.68;67.01;101322.78;4882464;28;98273;-76
2021/07/22 05:52:25;;;;;;;11.55;6.97;;;;;;;18.73;67.04;101324.63;4895474;28;126815;-77
2021/07/22 05:54:51;;;;;;;11.30;6.63;;;;;;;18.75;67.06;101323.25;4924494;28;126063;-72
2021/07/22 05:57:17;;;;;;;9.80;6.40;;;;;;;18.77;67.23;101331.91;4915212;28;116870;-76
2021/07/22 05:59:43;;;;;;;8.43;6.65;;;;;;;18.81;67.08;101326.66;4902052;28;127702;-76
2021/07/22 06:02:09;;;;;;;10.60;6.65;;;;;;;18.84;67.01;101329.59;4904047;28;126369;-75
2021/07/22 06:04:35;;;;;;;8.65;6.65;;;;;;;18.86;67.11;101321.94;4904543;28;98720;-76
2021/07/22 06:07:03;;;;;;;8.88;6.53;;;;;;;18.92;66.83;101327.28;4904174;28;97902;-72
2021/07/22 06:09:29;;;;;;;7.95;6.82;;;;;;;18.95;66.57;101326.69;4918720;28;116073;-72
2021/07/22 06:11:55;;;;;;;8.55;6.13;;;;;;;18.98;66.70;101328.78;4903677;28;128123;-76
2021/07/22 06:14:21;;;;;;;8.43;6.28;;;;;;;19.06;66.92;101330.81;4905314;28;98182;-72
2021/07/22 06:16:47;;;;;;;8.50;6.60;;;;;;;19.18;66.68;101327.56;4935113;28;115613;-75
2021/07/22 06:19:13;;;;;;;9.07;5.93;;;;;;;19.29;66.43;101331.72;4896919;28;98269;-72
2021/07/22 06:21:39;;;;;;;7.57;6.55;;;;;;;19.39;66.24;101328.78;4866088;28;126039;-76
2021/07/22 06:24:05;;;;;;;8.27;6.20;;;;;;;19.51;65.80;101331.00;4915192;28;118150;-76
2021/07/22 06:26:35;;;;;;;9.15;6.00;;;;;;;19.60;65.85;101321.75;4872103;28;106058;-77
2021/07/22 06:29:03;;;;;;;7.97;6.47;;;;;;;19.69;65.32;101321.88;4904646;28;97900;-72
2021/07/22 06:31:29;;;;;;;9.10;6.68;;;;;;;19.79;65.41;101327.09;4918674;28;115345;-77
2021/07/22 06:33:56;;;;;;;9.00;6.60;;;;;;;19.87;65.56;101331.03;4905405;28;98303;-76
2021/07/22 06:36:23;;;;;;;9.20;6.50;;;;;;;19.96;64.73;101336.56;4905087;28;97777;-76
2021/07/22 06:38:49;;;;;;;8.45;6.53;;;;;;;20.02;64.79;101327.94;4905029;28;98072;-76
2021/07/22 06:41:17;;;;;;;9.38;6.63;;;;;;;20.11;64.26;101328.00;4893445;28;125414;-75
2021/07/22 06:43:43;;;;;;;8.93;6.53;;;;;;;20.20;64.18;101333.53;4884068;28;115156;-75
2021/07/22 06:46:11;;;;;;;9.23;6.10;;;;;;;20.27;64.28;101333.91;4884320;28;116861;-76
2021/07/22 06:48:37;;;;;;;10.23;6.90;;;;;;;20.33;64.03;101333.47;4903173;28;125442;-71
2021/07/22 06:51:07;;;;;;;9.95;7.15;;;;;;;20.40;63.84;101327.56;4902532;28;98386;-72
2021/07/22 06:53:33;;;;;;;10.05;7.13;;;;;;;20.48;63.55;101326.81;4902361;28;97973;-72
2021/07/22 06:55:59;;;;;;;7.75;6.70;;;;;;;20.55;63.23;101327.22;4902551;28;98313;-73
2021/07/22 06:58:25;;;;;;;8.23;6.78;;;;;;;20.62;63.12;101334.97;4901344;28;126824;-73
2021/07/22 07:00:51;;;;;;;9.75;6.53;;;;;;;20.69;62.96;101329.84;4883974;28;128207;-76
2021/07/22 07:03:19;;;;;;;11.02;6.50;;;;;;;20.74;62.52;101332.44;4903389;28;110995;-73
2021/07/22 07:05:45;;;;;;;9.00;6.53;;;;;;;20.85;62.85;101335.72;4886570;28;97834;-76
2021/07/22 07:08:11;;;;;;;8.55;6.57;;;;;;;20.93;62.50;101332.22;4903938;28;98660;-73
2021/07/22 07:10:37;;;;;;;9.55;6.28;;;;;;;21.02;62.14;101348.69;4885019;28;125543;-73
2021/07/22 07:13:03;;;;;;;9.00;6.68;;;;;;;21.09;61.79;101340.81;4885066;28;124176;-76
2021/07/22 07:15:29;;;;;;;13.73;7.25;;;;;;;21.16;61.14;101340.38;4902123;28;97945;-77
2021/07/22 07:17:57;;;;;;;10.25;6.68;;;;;;;21.21;60.98;101341.00;4903367;28;128244;-76
2021/07/22 07:20:23;;;;;;;8.57;6.82;;;;;;;21.29;60.81;101342.16;4902318;28;98177;-76
2021/07/22 07:22:50;;;;;;;8.43;6.20;;;;;;;21.37;60.92;101340.59;4884518;28;128474;-76
2021/07/22 07:25:17;;;;;;;10.52;6.55;;;;;;;21.46;60.72;101339.50;4902935;28;98521;-73
2021/07/22 07:27:43;;;;;;;9.07;6.90;;;;;;;21.54;60.03;101332.44;4881598;28;122663;-77
2021/07/22 07:30:09;;;;;;;10.68;6.47;;;;;;;21.63;60.08;101346.94;4898357;28;98551;-73
2021/07/22 07:32:36;;;;;;;8.98;6.60;;;;;;;21.71;60.37;101342.59;4881833;28;109747;-77
2021/07/22 07:35:02;;;;;;;9.10;6.80;;;;;;;21.81;59.76;101334.88;4884991;28;97695;-73
2021/07/22 07:37:28;;;;;;;8.30;6.45;;;;;;;21.91;59.77;101330.97;4898814;28;99057;-78
2021/07/22 07:39:55;;;;;;;9.70;6.65;;;;;;;22.00;59.22;101336.47;4883400;28;118164;-77
2021/07/22 07:42:21;;;;;;;10.70;6.60;;;;;;;22.09;58.65;101331.81;4914238;28;97921;-73
2021/07/22 07:44:47;;;;;;;9.43;6.43;;;;;;;22.16;58.39;101334.88;4884518;28;116332;-77
2021/07/22 07:47:13;;;;;;;10.40;7.05;;;;;;;22.23;57.66;101329.69;4884317;28;99017;-72
2021/07/22 07:49:39;;;;;;;8.60;6.78;;;;;;;22.30;57.45;101326.47;4901041;28;127800;-73
2021/07/22 07:52:05;;;;;;;9.75;6.55;;;;;;;22.38;57.47;101333.06;4899212;28;127442;-78
2021/07/22 07:54:31;;;;;;;8.65;6.85;;;;;;;22.43;57.20;101335.63;4904223;28;97807;-77
2021/07/22 07:56:57;;;;;;;9.07;6.72;;;;;;;22.50;57.38;101338.69;4900573;28;125202;-77
2021/07/22 07:59:23;;;;;;;9.27;6.57;;;;;;;22.58;57.32;101337.06;4902891;28;126857;-73
2021/07/22 08:01:49;;;;;;;7.32;6.03;;;;;;;22.63;57.01;101334.13;4884467;28;126567;-73
2021/07/22 08:04:15;;;;;;;8.52;6.38;;;;;;;22.72;56.48;101330.22;4901550;28;98056;-77
2021/07/22 08:06:41;;;;;;;10.18;6.78;;;;;;;22.81;56.45;101330.19;4902818;28;108753;-73
2021/07/22 08:09:08;;;;;;;10.15;6.78;;;;;;;22.91;55.99;101326.28;4917530;28;98180;-77
2021/07/22 08:11:35;;;;;;;8.35;6.35;;;;;;;22.99;55.39;101331.78;4902237;28;113896;-77
2021/07/22 08:14:01;;;;;;;8.77;6.65;;;;;;;23.09;55.31;101325.09;4902241;28;118171;-73
2021/07/22 08:16:27;;;;;;;8.23;6.47;;;;;;;23.20;54.46;101328.28;4884229;28;117536;-78
2021/07/22 08:18:53;;;;;;;9.52;6.43;;;;;;;23.30;54.88;101325.13;4883762;28;126168;-73
2021/07/22 08:21:19;;;;;;;9.73;6.80;;;;;;;23.39;54.09;101322.34;4900449;28;106689;-77
2021/07/22 08:23:45;;;;;;;10.02;6.60;;;;;;;23.44;54.35;101328.44;4900453;28;97900;-73
2021/07/22 08:26:11;;;;;;;7.72;6.30;;;;;;;23.54;53.74;101324.50;4883854;28;121725;-78
2021/07/22 08:28:37;;;;;;;9.85;6.90;;;;;;;23.63;52.69;101325.25;4902085;28;128090;-78
2021/07/22 08:31:04;;;;;;;9.45;6.80;;;;;;;23.70;52.40;101322.00;4901006;28;125755;-74
2021/07/22 08:33:30;;;;;;;9.32;7.07;;;;;;;23.78;51.97;101321.13;4869258;28;100792;-73
2021/07/22 08:35:56;;;;;;;11.15;7.45;;;;;;;23.86;52.01;101323.00;4885139;28;98304;-78
2021/07/22 08:38:23;;;;;;;8.20;6.93;;;;;;;23.95;51.50;101323.72;4903193;28;98485;-78
2021/07/22 08:40:49;;;;;;;8.65;6.97;;;;;;;24.08;51.48;101318.25;4901925;28;97926;-73
2021/07/22 08:43:15;;;;;;;9.70;6.80;;;;;;;24.21;50.96;101315.22;4884401;28;115421;-73
2021/07/22 08:45:41;;;;;;;9.27;7.05;;;;;;;24.33;50.12;101319.97;4900295;28;97978;-78
2021/07/22 08:48:07;;;;;;;8.98;6.80;;;;;;;24.43;49.98;101324.25;4899820;28;128120;-77
2021/07/22 08:50:33;;;;;;;8.75;6.80;;;;;;;24.54;49.99;101319.13;4883396;28;126032;-78
2021/07/22 08:52:59;;;;;;;9.35;7.28;;;;;;;24.63;49.42;101312.34;4885032;28;98064;-78
2021/07/22 08:55:25;;;;;;;8.50;6.95;;;;;;;24.73;49.03;101313.88;4902532;28;98046;-78
2021/07/22 08:57:53;;;;;;;8.65;7.40;;;;;;;24.81;48.77;101315.72;4883589;28;127949;-73
2021/07/22 09:00:19;;;;;;;8.98;7.03;;;;;;;24.91;48.76;101319.94;4867001;28;99247;-79
2021/07/22 09:02:45;;;;;;;9.15;6.82;;;;;;;24.98;47.91;101309.16;4901294;28;98056;-78
2021/07/22 09:05:12;;;;;;;7.63;6.70;;;;;;;25.06;47.42;101312.94;4899855;28;101009;-79
2021/07/22 09:07:38;;;;;;;7.85;6.47;;;;;;;25.14;47.96;101310.09;4899662;28;99508;-74
2021/07/22 09:10:04;;;;;;;9.55;6.68;;;;;;;25.25;46.92;101304.13;4882507;28;127650;-79
2021/07/22 09:12:46;;;;;;;9.80;6.75;;;;;;;25.36;47.50;101299.75;4902372;28;97606;-73
2021/07/22 09:15:43;;;;;;;;;;;;;;;25.63;47.86;101310.03;4900052;28;98964;-73
2021/07/22 09:18:43;;;;;;;8.07;7.00;;;;;;;25.63;47.77;101303.72;4903111;28;97766;-79
2021/07/22 09:21:23;;;;;;;10.30;6.40;;;;;;;25.82;47.10;101312.19;4897714;28;97881;-73
2021/07/22 09:24:09;;;;;;;10.73;6.70;;;;;;;26.05;47.02;101309.66;4869322;28;98347;-79
2021/07/22 09:26:37;;;;;;;8.13;6.65;;;;;;;26.19;45.44;101303.72;4900225;28;99657;-79
2021/07/22 09:29:09;;;;;;;7.90;6.68;;;;;;;26.30;45.11;101304.81;4883497;28;98034;-78
2021/07/22 09:31:35;;;;;;;8.82;6.70;;;;;;;26.47;44.63;101294.63;4900165;28;98787;-79
2021/07/22 09:34:01;;;;;;;8.27;6.90;;;;;;;26.58;44.12;101302.03;4901877;28;97985;-73
2021/07/22 09:36:32;;;;;;;8.85;6.85;;;;;;;26.76;43.73;101301.66;4903023;28;98547;-82
2021/07/22 09:39:28;;;;;;;8.20;7.05;;;;;;;27.07;44.36;101298.06;4904197;28;98309;-82
2021/07/22 09:42:05;;;;;;;8.90;7.18;;;;;;;27.27;43.10;101291.44;4854017;28;98269;-73
2021/07/22 09:44:36;;;;;;;8.20;6.95;;;;;;;27.50;42.25;101293.53;4898002;28;97913;-73
2021/07/22 09:47:05;;;;;;;10.52;7.20;;;;;;;27.71;41.83;101285.69;4895145;28;98975;-82
2021/07/22 09:49:38;;;;;;;8.13;7.20;;;;;;;27.96;41.43;101288.97;4899943;28;98392;-82
2021/07/22 09:52:17;;;;;;;8.13;6.88;;;;;;;28.24;41.84;101291.47;4909016;28;98455;-73
2021/07/22 09:54:43;;;;;;;9.13;6.88;;;;;;;28.53;40.60;101292.00;4905696;28;97869;-73
2021/07/22 09:57:20;;;;;;;11.20;7.75;;;;;;;28.81;40.96;101284.16;4903704;28;128071;-81
2021/07/22 09:59:48;;;;;;;8.77;6.72;;;;;;;29.03;39.79;101284.50;4917224;28;98602;-81
2021/07/22 10:02:24;;;;;;;8.95;7.75;;;;;;;29.38;39.45;101283.41;4902269;28;100283;-81
2021/07/22 10:05:02;;;;;;;9.48;7.32;;;;;;;29.55;39.28;101282.84;4902269;28;97851;-72
2021/07/22 10:07:30;;;;;;;9.30;7.40;;;;;;;29.59;37.94;101287.31;4902480;28;119926;-72
2021/07/22 10:09:58;;;;;;;9.70;7.32;;;;;;;29.67;38.34;101284.59;4904525;28;98617;-72
2021/07/22 10:12:24;;;;;;;11.40;7.50;;;;;;;29.82;37.78;101278.03;4902480;28;98732;-72
2021/07/22 10:14:58;;;;;;;7.93;7.10;;;;;;;29.95;38.54;101276.63;4933721;28;115342;-81
2021/07/22 10:17:32;;;;;;;10.20;7.35;;;;;;;30.08;37.31;101275.16;4904264;28;101384;-71
2021/07/22 10:19:59;;;;;;;10.52;7.47;;;;;;;30.28;36.83;101270.22;4933024;28;98033;-72
2021/07/22 10:22:26;;;;;;;8.45;7.63;;;;;;;30.59;36.35;101268.13;4903806;28;117390;-81
2021/07/22 10:24:54;;;;;;;9.02;7.47;;;;;;;30.90;35.84;101264.00;4919021;28;97793;-81
2021/07/22 10:27:21;;;;;;;8.32;7.25;;;;;;;31.16;35.06;101264.94;4935325;28;98452;-81
2021/07/22 10:29:47;;;;;;;9.13;7.28;;;;;;;31.39;35.26;101262.72;4934906;28;98015;-71
2021/07/22 10:32:21;;;;;;;8.55;7.40;;;;;;;31.60;35.55;101250.88;4934302;28;126792;-71
2021/07/22 10:34:47;;;;;;;8.30;7.47;;;;;;;31.82;34.23;101251.72;4902814;28;106126;-72
2021/07/22 10:37:17;;;;;;;7.90;7.13;;;;;;;32.14;34.14;101253.81;4902172;28;128443;-81
2021/07/22 10:40:09;;;;;;;8.27;7.37;;;;;;;32.50;34.07;101255.47;4897204;28;98306;-71
2021/07/22 10:42:48;;;;;;;8.02;6.85;;;;;;;32.74;33.66;101242.69;4904075;28;97835;-80
2021/07/22 10:45:24;;;;;;;8.60;7.57;;;;;;;33.35;32.95;101244.53;4901920;28;98088;-80
2021/07/22 10:48:00;;;;;;;9.25;7.45;;;;;;;33.42;32.95;101242.50;4902710;28;98262;-71
2021/07/22 10:50:39;;;;;;;9.10;7.68;;;;;;;34.43;31.00;101239.94;4903740;28;98095;-81
2021/07/22 10:53:06;;;;;;;8.13;7.35;;;;;;;34.27;29.61;101236.84;4901748;28;99809;-81
2021/07/22 10:55:40;;;;;;;8.48;7.50;;;;;;;34.12;30.32;101231.38;4903851;28;105283;-72
2021/07/22 10:58:34;;;;;;;8.30;7.20;;;;;;;34.20;30.75;101229.34;4904156;28;98810;-81
2021/07/22 11:01:07;;;;;;;7.93;7.22;;;;;;;33.34;31.64;101231.78;4898326;28;100534;-81
2021/07/22 11:03:36;;;;;;;9.85;7.15;;;;;;;33.03;32.33;101225.91;4915788;28;98729;-81
2021/07/22 11:06:08;;;;;;;8.18;7.38;;;;;;;32.87;31.24;101219.94;4901855;28;98114;-81
2021/07/22 11:08:38;;;;;;;8.02;7.22;;;;;;;33.03;30.37;101217.53;4901524;28;98428;-72
2021/07/22 11:11:07;;;;;;;8.57;7.68;;;;;;;33.62;30.00;101214.91;4904063;28;98819;-72
2021/07/22 11:13:36;;;;;;;7.90;7.07;;;;;;;33.13;31.26;101208.34;4884910;28;99596;-81
2021/07/22 11:16:04;;;;;;;9.57;8.05;;;;;;;32.92;30.44;101205.56;4904241;28;98117;-73
2021/07/22 11:18:48;;;;;;;8.77;7.88;;;;;;;34.67;28.05;101202.56;4903373;28;97838;-72
2021/07/22 11:21:28;;;;;;;8.65;7.72;;;;;;;34.63;28.85;101209.41;4901398;28;100734;-81